createdAt,value
2023-05-05T00:01:09.110Z,9.80
2023-05-05T00:03:36.804Z,10.00
2023-05-05T00:06:05.639Z,10.30
2023-05-05T00:08:33.531Z,10.90
2023-05-05T00:11:01.485Z,12.10
2023-05-05T00:13:29.090Z,13.50
2023-05-05T00:15:56.790Z,11.60
2023-05-05T00:18:24.559Z,11.30
2023-05-05T00:20:52.307Z,11.50
2023-05-05T00:23:20.852Z,10.70
2023-05-05T00:25:48.586Z,11.50
2023-05-05T00:28:16.157Z,10.10
2023-05-05T00:30:43.860Z,10.40
2023-05-05T00:33:12.234Z,10.50
2023-05-05T00:35:40.412Z,10.30
2023-05-05T00:38:08.494Z,10.30
2023-05-05T00:40:37.088Z,10.00
2023-05-05T00:43:05.703Z,9.40
2023-05-05T00:45:33.370Z,9.20
2023-05-05T00:48:01.425Z,9.40
2023-05-05T00:50:30.697Z,9.80
2023-05-05T00:53:06.075Z,9.10
2023-05-05T00:55:35.353Z,9.70
2023-05-05T00:58:04.344Z,9.40
2023-05-05T01:00:32.672Z,10.10
2023-05-05T01:03:00.748Z,9.80
2023-05-05T01:05:41.671Z,9.80
2023-05-05T01:08:33.839Z,10.00
2023-05-05T01:11:10.308Z,10.00
2023-05-05T01:13:59.036Z,10.00
2023-05-05T01:16:28.649Z,10.80
2023-05-05T01:19:21.302Z,9.80
2023-05-05T01:21:56.175Z,9.80
2023-05-05T01:24:46.051Z,9.70
2023-05-05T01:27:38.893Z,10.50
2023-05-05T01:30:34.254Z,10.20
2023-05-05T01:33:06.778Z,10.40
2023-05-05T01:35:41.889Z,11.40
2023-05-05T01:38:16.491Z,10.20
2023-05-05T01:40:49.461Z,10.50
2023-05-05T01:43:19.796Z,10.70
2023-05-05T01:45:48.603Z,11.10
2023-05-05T01:48:18.326Z,9.70
2023-05-05T01:50:47.884Z,10.40
2023-05-05T01:53:17.595Z,10.60
2023-05-05T01:55:46.258Z,10.20
2023-05-05T01:58:14.569Z,10.50
2023-05-05T02:00:44.078Z,10.50
2023-05-05T02:03:13.803Z,9.20
2023-05-05T02:05:42.053Z,10.00
2023-05-05T02:08:11.219Z,9.60
2023-05-05T02:10:43.512Z,9.50
2023-05-05T02:13:13.088Z,9.50
2023-05-05T02:15:42.435Z,10.20
2023-05-05T02:18:11.157Z,10.40
2023-05-05T02:20:39.959Z,10.40
2023-05-05T02:23:08.308Z,9.10
2023-05-05T02:25:40.089Z,9.10
2023-05-05T02:28:42.195Z,8.80
2023-05-05T02:31:11.043Z,9.10
2023-05-05T02:33:39.205Z,8.90
2023-05-05T02:36:14.802Z,8.50
2023-05-05T02:38:56.427Z,9.50
2023-05-05T02:41:26.336Z,9.10
2023-05-05T02:43:55.626Z,9.20
2023-05-05T02:46:23.692Z,8.40
2023-05-05T02:48:51.504Z,8.50
2023-05-05T02:51:19.203Z,8.60
2023-05-05T02:53:47.062Z,8.70
2023-05-05T02:56:21.156Z,9.00
2023-05-05T02:58:54.773Z,8.80
2023-05-05T03:02:11.409Z,8.60
2023-05-05T03:04:42.077Z,8.60
2023-05-05T03:07:14.230Z,8.40
2023-05-05T03:09:52.081Z,8.00
2023-05-05T03:12:22.396Z,8.30
2023-05-05T03:15:00.952Z,8.40
2023-05-05T03:17:30.882Z,9.70
2023-05-05T03:20:00.500Z,8.80
2023-05-05T03:22:36.121Z,8.50
2023-05-05T03:25:05.011Z,8.90
2023-05-05T03:27:32.961Z,8.80
2023-05-05T03:30:00.783Z,9.30
2023-05-05T03:32:30.788Z,9.70
2023-05-05T03:34:58.417Z,9.50
2023-05-05T03:37:30.034Z,9.20
2023-05-05T03:39:58.235Z,9.20
2023-05-05T03:42:25.882Z,8.70
2023-05-05T03:44:54.161Z,8.80
2023-05-05T03:47:24.742Z,8.50
2023-05-05T03:49:52.802Z,8.30
2023-05-05T03:52:20.576Z,9.00
2023-05-05T03:54:48.498Z,8.40
2023-05-05T03:57:16.740Z,8.70
2023-05-05T03:59:44.425Z,8.70
2023-05-05T04:02:12.094Z,8.90
2023-05-05T04:04:39.785Z,8.90
2023-05-05T04:07:07.489Z,8.90
2023-05-05T04:09:35.233Z,8.10
2023-05-05T04:12:03.161Z,9.10
2023-05-05T04:14:30.819Z,7.80
2023-05-05T04:16:58.644Z,8.10
2023-05-05T04:19:26.627Z,7.70
2023-05-05T04:21:54.488Z,7.40
2023-05-05T04:24:24.843Z,7.40
2023-05-05T04:26:53.593Z,7.80
2023-05-05T04:29:21.468Z,7.30
2023-05-05T04:31:50.579Z,7.50
2023-05-05T04:34:18.412Z,7.80
2023-05-05T04:36:46.427Z,7.10
2023-05-05T04:39:14.622Z,7.50
2023-05-05T04:41:42.329Z,7.30
2023-05-05T04:44:10.447Z,8.60
2023-05-05T04:46:38.070Z,8.10
2023-05-05T04:49:06.331Z,7.10
2023-05-05T04:51:34.590Z,7.00
2023-05-05T04:54:02.261Z,6.80
2023-05-05T04:56:31.581Z,7.80
2023-05-05T04:58:59.250Z,7.20
2023-05-05T05:01:26.949Z,6.80
2023-05-05T05:03:54.709Z,6.90
2023-05-05T05:06:22.362Z,7.00
2023-05-05T05:08:49.991Z,6.40
2023-05-05T05:11:17.629Z,5.90
2023-05-05T05:13:46.286Z,7.40
2023-05-05T05:16:14.101Z,7.20
2023-05-05T05:18:41.873Z,6.10
2023-05-05T05:21:10.289Z,5.90
2023-05-05T05:23:38.256Z,6.90
2023-05-05T05:26:06.539Z,5.60
2023-05-05T05:28:34.678Z,5.80
2023-05-05T05:31:03.319Z,8.30
2023-05-05T05:33:31.529Z,6.10
2023-05-05T05:35:59.741Z,6.30
2023-05-05T05:38:28.013Z,7.30
2023-05-05T05:40:58.168Z,5.80
2023-05-05T05:43:25.894Z,6.00
2023-05-05T05:45:53.562Z,6.10
2023-05-05T05:48:24.769Z,7.80
2023-05-05T05:50:53.338Z,7.00
2023-05-05T05:53:22.031Z,6.20
2023-05-05T05:55:50.500Z,7.60
2023-05-05T05:58:18.706Z,8.70
2023-05-05T06:00:46.661Z,7.40
2023-05-05T06:03:14.729Z,6.10
2023-05-05T06:05:42.666Z,7.60
2023-05-05T06:08:11.275Z,7.20
2023-05-05T06:10:42.853Z,6.30
2023-05-05T06:13:14.492Z,6.00
2023-05-05T06:15:44.726Z,6.60
2023-05-05T06:18:13.189Z,6.40
2023-05-05T06:20:40.807Z,8.30
2023-05-05T06:23:09.106Z,6.00
2023-05-05T06:25:39.132Z,8.20
2023-05-05T06:28:07.211Z,6.30
2023-05-05T06:30:34.870Z,8.10
2023-05-05T06:33:02.483Z,5.60
2023-05-05T06:35:30.459Z,14.90
2023-05-05T06:37:58.164Z,11.60
2023-05-05T06:40:25.798Z,6.00
2023-05-05T06:42:53.452Z,6.90
2023-05-05T06:45:24.222Z,7.80
2023-05-05T06:47:52.609Z,5.40
2023-05-05T06:50:20.363Z,8.50
2023-05-05T06:52:47.943Z,8.80
2023-05-05T06:55:15.885Z,8.60
2023-05-05T06:57:43.462Z,5.90
2023-05-05T07:00:12.022Z,8.50
2023-05-05T07:02:40.088Z,7.70
2023-05-05T07:05:08.126Z,8.80
2023-05-05T07:07:36.306Z,6.10
2023-05-05T07:10:04.298Z,5.70
2023-05-05T07:12:31.979Z,5.50
2023-05-05T07:15:00.720Z,5.60
2023-05-05T07:17:30.846Z,6.20
2023-05-05T07:19:58.429Z,5.50
2023-05-05T07:22:26.019Z,5.30
2023-05-05T07:24:53.685Z,6.00
2023-05-05T07:27:21.425Z,6.70
2023-05-05T07:29:49.036Z,4.70
2023-05-05T07:32:16.716Z,5.20
2023-05-05T07:34:44.323Z,5.10
2023-05-05T07:37:12.744Z,5.60
2023-05-05T07:39:40.648Z,5.60
2023-05-05T07:42:08.426Z,6.90
2023-05-05T07:44:36.182Z,5.30
2023-05-05T07:47:03.775Z,6.60
2023-05-05T07:49:31.789Z,5.80
2023-05-05T07:51:59.415Z,5.50
2023-05-05T07:54:27.247Z,5.30
2023-05-05T07:56:54.914Z,5.20
2023-05-05T07:59:22.612Z,6.00
2023-05-05T08:01:50.463Z,6.00
2023-05-05T08:04:18.079Z,7.20
2023-05-05T08:06:45.727Z,7.50
2023-05-05T08:09:13.748Z,7.70
2023-05-05T08:11:41.324Z,6.90
2023-05-05T08:14:08.978Z,7.60
2023-05-05T08:16:36.647Z,7.50
2023-05-05T08:19:06.364Z,7.50
2023-05-05T08:21:39.660Z,7.30
2023-05-05T08:24:07.278Z,7.00
2023-05-05T08:26:34.839Z,7.40
2023-05-05T08:29:02.618Z,6.60
2023-05-05T08:31:33.893Z,6.10
2023-05-05T08:34:02.613Z,6.00
2023-05-05T08:36:30.976Z,5.70
2023-05-05T08:38:59.555Z,7.20
2023-05-05T08:41:28.042Z,5.90
2023-05-05T08:43:55.715Z,5.90
2023-05-05T08:46:24.137Z,5.40
2023-05-05T08:48:55.157Z,6.80
2023-05-05T08:51:24.465Z,5.70
2023-05-05T08:53:55.101Z,6.80
2023-05-05T08:56:26.827Z,7.00
2023-05-05T08:58:55.019Z,6.00
2023-05-05T09:01:22.723Z,5.60
2023-05-05T09:03:52.564Z,5.80
2023-05-05T09:06:21.515Z,5.60
2023-05-05T09:08:49.609Z,6.10
2023-05-05T09:11:17.216Z,6.00
2023-05-05T09:13:44.799Z,8.00
2023-05-05T09:16:12.481Z,6.30
2023-05-05T09:18:42.506Z,6.00
2023-05-05T09:21:24.942Z,6.70
2023-05-05T09:24:09.419Z,6.30
2023-05-05T09:26:40.764Z,6.70
2023-05-05T09:29:08.456Z,6.30
2023-05-05T09:31:37.066Z,7.30
2023-05-05T09:34:22.762Z,5.80
2023-05-05T09:36:50.435Z,6.00
2023-05-05T09:39:19.597Z,6.10
2023-05-05T09:41:47.261Z,6.20
2023-05-05T09:44:18.193Z,6.50
2023-05-05T09:46:53.233Z,6.60
2023-05-05T09:49:26.608Z,6.30
2023-05-05T09:51:54.769Z,6.80
2023-05-05T09:54:27.482Z,5.90
2023-05-05T09:56:56.858Z,6.80
2023-05-05T09:59:24.897Z,6.50
2023-05-05T10:01:52.519Z,7.80
2023-05-05T10:04:28.505Z,6.10
2023-05-05T10:06:57.291Z,6.10
2023-05-05T10:09:26.124Z,6.70
2023-05-05T10:11:56.680Z,6.10
2023-05-05T10:14:25.599Z,6.30
2023-05-05T10:16:54.974Z,5.40
2023-05-05T10:19:24.173Z,6.20
2023-05-05T10:21:53.959Z,6.40
2023-05-05T10:24:27.429Z,6.00
2023-05-05T10:26:58.118Z,5.70
2023-05-05T10:29:45.871Z,6.20
2023-05-05T10:32:50.880Z,7.20
2023-05-05T10:35:11.338Z,7.20
2023-05-05T10:37:39.376Z,6.30
2023-05-05T10:40:08.846Z,6.00
2023-05-05T10:42:39.841Z,6.90
2023-05-05T10:45:08.205Z,6.40
2023-05-05T10:47:36.959Z,6.70
2023-05-05T10:50:36.788Z,7.90
2023-05-05T10:53:13.680Z,6.40
2023-05-05T10:55:48.442Z,6.20
2023-05-05T10:58:46.801Z,7.00
2023-05-05T11:01:34.621Z,6.70
2023-05-05T11:04:18.829Z,6.60
2023-05-05T11:07:09.252Z,6.20
2023-05-05T11:10:14.074Z,6.20
2023-05-05T11:12:54.740Z,6.10
2023-05-05T11:15:31.307Z,6.40
2023-05-05T11:18:03.149Z,6.90
2023-05-05T11:20:35.783Z,6.50
2023-05-05T11:23:03.459Z,6.80
2023-05-05T11:25:37.368Z,7.00
2023-05-05T11:28:10.253Z,6.60
2023-05-05T11:30:56.929Z,6.20
2023-05-05T11:33:29.100Z,7.20
2023-05-05T11:36:04.269Z,7.20
2023-05-05T11:38:55.740Z,6.90
2023-05-05T11:41:56.680Z,6.70
2023-05-05T11:44:34.188Z,6.90
2023-05-05T11:47:04.756Z,6.80
2023-05-05T11:49:37.789Z,6.90
2023-05-05T11:52:07.570Z,7.20
2023-05-05T11:54:37.539Z,7.00
2023-05-05T11:57:07.197Z,8.00
2023-05-05T11:59:37.175Z,7.30
2023-05-05T12:02:04.896Z,7.90
2023-05-05T12:04:32.763Z,8.40
2023-05-05T12:07:00.670Z,7.80
2023-05-05T12:09:28.285Z,7.20
2023-05-05T12:11:57.169Z,7.40
2023-05-05T12:14:25.522Z,7.20
2023-05-05T12:17:17.237Z,7.40
2023-05-05T12:19:50.104Z,6.40
2023-05-05T12:22:22.700Z,6.70
2023-05-05T12:24:58.970Z,6.80
2023-05-05T12:27:27.730Z,7.40
2023-05-05T12:29:56.657Z,6.90
2023-05-05T12:32:26.006Z,6.10
2023-05-05T12:34:55.349Z,7.40
2023-05-05T12:37:25.034Z,6.90
2023-05-05T12:39:54.930Z,6.60
2023-05-05T12:42:22.956Z,6.60
2023-05-05T12:44:50.655Z,8.60
2023-05-05T12:47:32.038Z,9.00
2023-05-05T12:50:00.501Z,8.50
2023-05-05T12:52:44.487Z,8.50
2023-05-05T12:55:12.519Z,9.00
2023-05-05T12:58:00.445Z,7.90
2023-05-05T13:00:29.136Z,8.10
2023-05-05T13:02:57.083Z,8.10
2023-05-05T13:05:36.253Z,8.30
2023-05-05T13:08:04.056Z,8.20
2023-05-05T13:10:31.762Z,7.60
2023-05-05T13:12:59.470Z,7.80
2023-05-05T13:15:27.918Z,8.20
2023-05-05T13:18:02.862Z,8.00
2023-05-05T13:20:30.706Z,7.00
2023-05-05T13:22:58.304Z,6.50
2023-05-05T13:25:26.061Z,6.20
2023-05-05T13:27:53.643Z,7.10
2023-05-05T13:30:21.345Z,7.20
2023-05-05T13:32:49.015Z,7.20
2023-05-05T13:35:17.219Z,7.40
2023-05-05T13:37:46.619Z,8.10
2023-05-05T13:40:14.293Z,7.30
2023-05-05T13:42:41.925Z,7.50
2023-05-05T13:45:10.216Z,7.40
2023-05-05T13:47:38.410Z,7.50
2023-05-05T13:50:07.240Z,7.50
2023-05-05T13:52:34.783Z,7.90
2023-05-05T13:55:02.695Z,6.90
2023-05-05T13:57:30.290Z,7.20
2023-05-05T13:59:58.091Z,7.60
2023-05-05T14:02:25.736Z,7.40
2023-05-05T14:04:53.429Z,7.10
2023-05-05T14:07:21.500Z,8.20
2023-05-05T14:09:49.118Z,7.50
2023-05-05T14:12:16.735Z,7.00
2023-05-05T14:14:44.463Z,6.70
2023-05-05T14:17:12.866Z,7.20
2023-05-05T14:19:40.509Z,6.30
2023-05-05T14:22:08.109Z,6.60
2023-05-05T14:24:35.753Z,6.30
2023-05-05T14:27:04.688Z,6.00
2023-05-05T14:29:32.316Z,6.20
2023-05-05T14:32:00.281Z,4.80
2023-05-05T14:34:27.946Z,5.30
2023-05-05T14:36:55.656Z,6.50
2023-05-05T14:39:23.700Z,5.70
2023-05-05T14:41:51.326Z,5.50
2023-05-05T14:44:18.959Z,5.50
2023-05-05T14:46:47.567Z,6.50
2023-05-05T14:49:16.234Z,5.30
2023-05-05T14:51:43.894Z,5.70
2023-05-05T14:54:24.300Z,7.10
2023-05-05T14:56:55.236Z,8.70
2023-05-05T14:59:22.856Z,6.80
2023-05-05T15:01:50.452Z,4.80
2023-05-05T15:04:18.083Z,5.10
2023-05-05T15:06:45.788Z,5.20
2023-05-05T15:09:13.412Z,4.90
2023-05-05T15:11:45.361Z,5.60
2023-05-05T15:14:13.028Z,7.20
2023-05-05T15:16:40.909Z,9.50
2023-05-05T15:19:08.541Z,7.10
2023-05-05T15:21:36.132Z,9.80
2023-05-05T15:24:04.827Z,5.60
2023-05-05T15:26:32.420Z,6.10
2023-05-05T15:28:59.990Z,5.10
2023-05-05T15:31:27.632Z,6.10
2023-05-05T15:33:55.284Z,6.40
2023-05-05T15:36:24.574Z,8.90
2023-05-05T15:38:52.142Z,5.60
2023-05-05T15:41:19.747Z,7.10
2023-05-05T15:43:47.301Z,6.70
2023-05-05T15:46:15.223Z,6.10
2023-05-05T15:48:42.890Z,10.90
2023-05-05T15:51:12.544Z,7.70
2023-05-05T15:53:40.151Z,8.90
2023-05-05T15:56:08.075Z,5.90
2023-05-05T15:58:36.750Z,6.60
2023-05-05T16:01:04.374Z,6.60
2023-05-05T16:03:32.289Z,6.20
2023-05-05T16:05:59.957Z,5.60
2023-05-05T16:08:27.605Z,7.50
2023-05-05T16:10:55.867Z,5.80
2023-05-05T16:13:23.459Z,6.20
2023-05-05T16:15:51.034Z,6.50
2023-05-05T16:18:18.623Z,6.10
2023-05-05T16:20:46.396Z,8.00
2023-05-05T16:23:14.023Z,4.90
2023-05-05T16:25:41.668Z,5.40
2023-05-05T16:28:09.308Z,7.00
2023-05-05T16:30:38.057Z,5.70
2023-05-05T16:33:06.698Z,6.50
2023-05-05T16:35:34.437Z,5.80
2023-05-05T16:38:02.084Z,5.20
2023-05-05T16:40:29.726Z,5.40
2023-05-05T16:42:57.334Z,4.90
2023-05-05T16:45:25.043Z,5.00
2023-05-05T16:47:52.841Z,6.00
2023-05-05T16:50:21.386Z,6.40
2023-05-05T16:52:49.099Z,6.10
2023-05-05T16:55:16.791Z,6.90
2023-05-05T16:57:44.378Z,6.30
2023-05-05T17:00:12.373Z,5.80
2023-05-05T17:02:39.984Z,5.40
2023-05-05T17:05:08.287Z,5.50
2023-05-05T17:07:36.284Z,6.30
2023-05-05T17:10:04.378Z,6.60
2023-05-05T17:12:32.067Z,5.60
2023-05-05T17:14:59.926Z,5.20
2023-05-05T17:17:27.617Z,5.10
2023-05-05T17:19:55.870Z,5.30
2023-05-05T17:22:23.461Z,6.30
2023-05-05T17:24:51.044Z,6.70
2023-05-05T17:27:18.724Z,4.70
2023-05-05T17:29:46.322Z,5.50
2023-05-05T17:32:13.928Z,8.40
2023-05-05T17:34:41.488Z,7.80
2023-05-05T17:37:09.735Z,6.70
2023-05-05T17:39:37.370Z,6.90
2023-05-05T17:42:05.079Z,6.50
2023-05-05T17:44:32.781Z,6.20
2023-05-05T17:47:00.446Z,5.80
2023-05-05T17:49:28.070Z,5.00
2023-05-05T17:51:55.690Z,7.40
2023-05-05T17:54:23.297Z,7.00
2023-05-05T17:56:51.581Z,8.10
2023-05-05T17:59:19.173Z,8.30
2023-05-05T18:01:46.882Z,6.40
2023-05-05T18:04:14.487Z,6.00
2023-05-05T18:06:42.078Z,7.20
2023-05-05T18:09:11.279Z,6.10
2023-05-05T18:11:39.044Z,7.70
2023-05-05T18:14:06.654Z,7.70
2023-05-05T18:16:34.248Z,6.70
2023-05-05T18:19:01.865Z,6.30
2023-05-05T18:21:29.887Z,6.60
2023-05-05T18:24:07.570Z,7.30
2023-05-05T18:26:50.282Z,6.20
2023-05-05T18:29:18.877Z,7.00
2023-05-05T18:31:51.818Z,7.40
2023-05-05T18:34:20.739Z,7.10
2023-05-05T18:36:50.738Z,6.70
2023-05-05T18:39:18.522Z,6.50
2023-05-05T18:41:46.158Z,8.40
2023-05-05T18:44:15.043Z,5.90
2023-05-05T18:46:46.783Z,8.50
2023-05-05T18:49:14.924Z,7.20
2023-05-05T18:51:43.286Z,8.60
2023-05-05T18:54:11.008Z,8.10
2023-05-05T18:56:38.760Z,9.40
2023-05-05T18:59:06.400Z,11.40
2023-05-05T19:01:34.022Z,6.60
2023-05-05T19:04:01.642Z,7.40
2023-05-05T19:06:29.255Z,7.60
2023-05-05T19:08:57.185Z,8.30
2023-05-05T19:11:24.766Z,10.70
2023-05-05T19:13:52.366Z,8.80
2023-05-05T19:16:20.051Z,8.40
2023-05-05T19:18:47.816Z,8.60
2023-05-05T19:21:15.489Z,7.10
2023-05-05T19:23:43.095Z,8.80
2023-05-05T19:26:11.572Z,6.60
2023-05-05T19:28:39.199Z,8.40
2023-05-05T19:31:06.782Z,7.50
2023-05-05T19:33:34.351Z,6.90
2023-05-05T19:36:02.657Z,9.60
2023-05-05T19:38:30.235Z,7.50
2023-05-05T19:40:57.814Z,7.20
2023-05-05T19:43:25.381Z,8.20
2023-05-05T19:45:53.036Z,6.80
2023-05-05T19:48:20.878Z,7.10
2023-05-05T19:50:48.528Z,8.30
2023-05-05T19:53:16.123Z,7.40
2023-05-05T19:55:43.753Z,7.30
2023-05-05T19:58:12.009Z,8.10
2023-05-05T20:00:39.911Z,7.60
2023-05-05T20:03:07.560Z,7.30
2023-05-05T20:05:36.527Z,8.00
2023-05-05T20:08:04.271Z,7.60
2023-05-05T20:10:31.871Z,7.40
2023-05-05T20:12:59.520Z,7.40
2023-05-05T20:15:27.451Z,8.20
2023-05-05T20:17:55.283Z,8.70
2023-05-05T20:20:22.942Z,8.00
2023-05-05T20:22:50.549Z,7.40
2023-05-05T20:25:18.226Z,7.50
2023-05-05T20:27:46.024Z,8.30
2023-05-05T20:30:14.505Z,7.60
2023-05-05T20:32:42.174Z,6.30
2023-05-05T20:35:10.024Z,6.70
2023-05-05T20:37:37.697Z,7.20
2023-05-05T20:40:06.250Z,6.60
2023-05-05T20:42:33.899Z,6.90
2023-05-05T20:45:02.105Z,6.80
2023-05-05T20:47:29.774Z,8.10
2023-05-05T20:49:57.390Z,7.90
2023-05-05T20:52:25.042Z,6.80
2023-05-05T20:54:52.661Z,7.30
2023-05-05T20:57:20.323Z,6.50
2023-05-05T20:59:47.984Z,6.70
2023-05-05T21:02:15.653Z,6.00
2023-05-05T21:04:43.364Z,5.90
2023-05-05T21:07:10.974Z,7.80
2023-05-05T21:09:38.587Z,7.00
2023-05-05T21:12:06.610Z,6.00
2023-05-05T21:14:34.202Z,6.60
2023-05-05T21:17:01.878Z,6.00
2023-05-05T21:19:29.504Z,5.80
2023-05-05T21:21:59.222Z,5.50
2023-05-05T21:24:28.043Z,7.00
2023-05-05T21:26:56.338Z,5.60
2023-05-05T21:29:26.740Z,6.70
2023-05-05T21:31:54.448Z,5.60
2023-05-05T21:34:22.105Z,5.80
2023-05-05T21:36:49.682Z,5.70
2023-05-05T21:39:17.285Z,5.90
2023-05-05T21:41:44.922Z,7.40
2023-05-05T21:44:12.569Z,5.60
2023-05-05T21:46:40.414Z,5.80
2023-05-05T21:49:20.400Z,5.80
2023-05-05T21:51:48.015Z,5.70
2023-05-05T21:54:15.905Z,5.50
2023-05-05T21:56:43.562Z,5.10
2023-05-05T21:59:11.233Z,5.40
2023-05-05T22:01:38.894Z,5.00
2023-05-05T22:04:07.513Z,6.00
2023-05-05T22:06:35.550Z,6.80
2023-05-05T22:09:03.313Z,5.10
2023-05-05T22:11:31.341Z,5.20
2023-05-05T22:13:58.941Z,4.90
2023-05-05T22:16:26.685Z,5.40
2023-05-05T22:18:54.284Z,6.30
2023-05-05T22:21:22.093Z,5.20
2023-05-05T22:23:49.701Z,7.20
2023-05-05T22:26:17.293Z,6.00
2023-05-05T22:28:44.992Z,5.90
2023-05-05T22:31:12.727Z,7.10
2023-05-05T22:33:40.327Z,5.00
2023-05-05T22:36:09.085Z,5.20
2023-05-05T22:38:37.214Z,5.60
2023-05-05T22:41:06.468Z,6.60
2023-05-05T22:43:34.070Z,7.20
2023-05-05T22:46:01.894Z,5.30
2023-05-05T22:48:29.519Z,5.30
2023-05-05T22:50:57.438Z,5.70
2023-05-05T22:53:25.012Z,5.90
2023-05-05T22:55:52.671Z,6.20
2023-05-05T22:58:21.051Z,5.30
2023-05-05T23:00:48.649Z,5.80
2023-05-05T23:03:16.281Z,5.30
2023-05-05T23:05:43.898Z,5.80
2023-05-05T23:08:11.500Z,6.90
2023-05-05T23:10:39.113Z,5.20
2023-05-05T23:13:06.808Z,6.30
2023-05-05T23:15:35.032Z,5.90
2023-05-05T23:18:02.714Z,6.30
2023-05-05T23:20:30.390Z,5.40
2023-05-05T23:22:58.037Z,5.70
2023-05-05T23:25:26.013Z,6.30
2023-05-05T23:27:53.719Z,6.10
2023-05-05T23:30:21.538Z,5.40
2023-05-05T23:32:49.194Z,6.20
2023-05-05T23:35:16.857Z,5.90
2023-05-05T23:37:44.495Z,6.10
2023-05-05T23:40:12.117Z,6.20
2023-05-05T23:42:39.753Z,6.00
2023-05-05T23:45:08.378Z,6.00
2023-05-05T23:47:36.343Z,6.20
2023-05-05T23:50:04.314Z,5.60
2023-05-05T23:52:31.934Z,5.10
2023-05-05T23:54:59.514Z,6.40
2023-05-05T23:57:27.092Z,6.10
2023-05-05T23:59:54.666Z,5.80
